Angola Tri-State Steuben Coun, IN

8:44 PM EDT on April 27, 2017 (GMT -0400)
Tri-State Steuben County

Weather History for KANQ - April, 2014

Change the Weather History Date:

Thursday, April 3, 2014

  Actual Average (KFWA) Record (KFWA)
Temperature  
Mean Temperature 40 °F -  
Max Temperature 48 °F 54 °F 78 °F (1956)
Min Temperature 32 °F 35 °F 19 °F (1987)
Degree Days  
Heating Degree Days 25    
Moisture  
Dew Point 31 °F    
Average Humidity 82    
Maximum Humidity 100    
Minimum Humidity 50    
Precipitation  
Precipitation 0.00 in - - ()
Sea Level Pressure  
Sea Level Pressure 29.93 in    
Wind  
Wind Speed 13 mph (East)    
Max Wind Speed 25 mph    
Max Gust Speed 25 mph    
Visibility 6 miles    
Events      
Averages and records for this station are not official NWS values.
T = Trace of Precipitation, MM = Missing Value Source: NWS Daily Summary

Daily Weather History Graph

Daily Weather History Graph

Search for Another Location

Airport or City:

Trip Planner

Search our weather history database for the weather conditions in past years. The results will help you decide how hot, cold, wet, or windy it might be!

Date:

Astronomy

Apr. 03, 2014 Rise Set
Actual Time 7:19 AM EDT 8:07 PM EDT
Civil Twilight 6:51 AM EDT 8:36 PM EDT
Nautical Twilight 6:18 AM EDT 9:09 PM EDT
Astronomical Twilight 5:44 AM EDT 9:44 PM EDT
Moon 9:45 AM EDT (4/3) No Moon Set
Length of Visible Light 13h 44m
Length of Day
12h 47m
Waxing Crescent, 17% of the Moon is Illuminated
Apr 3
Waxing Crescent
Apr 7
First Quarter
Apr 15
Full
Apr 22
Last Quarter
Apr 29
New

Hourly Weather History & Observations

Time (EDT) Temp. Windchill Dew Point Humidity Pressure Visibility Wind Dir Wind Speed Gust Speed Precip Events Conditions
12:15 AM 48.2 °F - 30.2 °F 50% 30.10 in 10.0 mi East 6.9 mph - N/A   Overcast
12:35 AM 46.4 °F 41.5 °F 30.2 °F 53% 30.10 in 10.0 mi East 10.4 mph - N/A   Mostly Cloudy
12:55 AM 46.4 °F 40.4 °F 30.2 °F 53% 30.10 in 10.0 mi East 13.8 mph - N/A   Mostly Cloudy
1:15 AM 46.4 °F 41.1 °F 30.2 °F 53% 30.10 in 10.0 mi East 11.5 mph - N/A   Overcast
1:35 AM 44.6 °F 37.8 °F 30.2 °F 57% 30.10 in 10.0 mi East 15.0 mph - N/A   Mostly Cloudy
1:55 AM 44.6 °F 37.4 °F 30.2 °F 57% 30.08 in 10.0 mi East 16.1 mph - N/A   Overcast
2:15 AM 42.8 °F 35.1 °F 30.2 °F 61% 30.07 in 10.0 mi East 16.1 mph - N/A   Overcast
2:35 AM 42.8 °F 35.8 °F 30.2 °F 61% 30.07 in 10.0 mi ESE 13.8 mph - N/A   Overcast
2:55 AM 42.8 °F 34.5 °F 30.2 °F 61% 30.07 in 10.0 mi ESE 18.4 mph - N/A   Overcast
3:15 AM 42.8 °F 37.0 °F 32.0 °F 66% 30.08 in 10.0 mi East 10.4 mph - N/A   Overcast
3:35 AM 41.0 °F 32.8 °F 32.0 °F 70% 30.07 in 10.0 mi East 16.1 mph - N/A   Overcast
3:55 AM 41.0 °F 34.3 °F 32.0 °F 70% 30.07 in 10.0 mi East 11.5 mph - N/A   Overcast
4:15 AM 39.2 °F 30.5 °F 32.0 °F 75% 30.05 in 10.0 mi East 16.1 mph - N/A   Overcast
4:35 AM 39.2 °F 30.8 °F 30.2 °F 70% 30.08 in 10.0 mi East 15.0 mph - N/A   Overcast
5:15 AM 37.4 °F 29.3 °F 32.0 °F 81% 30.06 in 10.0 mi ESE 12.7 mph - N/A   Mostly Cloudy
5:35 AM 37.4 °F 29.8 °F 30.2 °F 75% 30.07 in 10.0 mi ESE 11.5 mph - N/A   Overcast
5:55 AM 37.4 °F 29.3 °F 30.2 °F 75% 30.07 in 10.0 mi ESE 12.7 mph - N/A   Overcast
6:15 AM 35.6 °F 28.6 °F 30.2 °F 81% 30.05 in 7.0 mi East 9.2 mph - N/A   Overcast
6:35 AM 35.6 °F 26.6 °F 30.2 °F 81% 30.04 in 10.0 mi East 13.8 mph - N/A   Overcast
6:55 AM 35.6 °F 25.5 °F 28.4 °F 75% 30.03 in 10.0 mi ESE 17.3 mph - N/A   Overcast
7:15 AM 35.6 °F 25.5 °F 28.4 °F 75% 30.02 in 10.0 mi East 17.3 mph - N/A   Overcast
7:35 AM 35.6 °F 25.2 °F 28.4 °F 75% 30.02 in 10.0 mi East 18.4 mph - N/A   Overcast
7:55 AM 35.6 °F 25.2 °F 26.6 °F 70% 30.02 in 10.0 mi ESE 18.4 mph - N/A   Overcast
8:15 AM 35.6 °F 25.5 °F 26.6 °F 70% 30.01 in 10.0 mi East 17.3 mph - N/A   Overcast
8:35 AM 35.6 °F 24.8 °F 26.6 °F 70% 30.00 in 10.0 mi East 19.6 mph - N/A   Overcast
8:55 AM 33.8 °F 22.5 °F 26.6 °F 75% 29.99 in 10.0 mi East 19.6 mph - N/A   Overcast
9:15 AM 33.8 °F 23.5 °F 26.6 °F 75% 30.00 in 9.0 mi East 16.1 mph - N/A   Overcast
9:35 AM 33.8 °F 21.9 °F 26.6 °F 75% 30.02 in 6.0 mi ESE 21.9 mph - N/A   Overcast
9:55 AM 33.8 °F 23.2 °F 26.6 °F 75% 29.99 in 4.0 mi East 17.3 mph - N/A   Overcast
10:15 AM 32.0 °F 20.8 °F 28.4 °F 87% 29.97 in 7.0 mi East 17.3 mph - N/A   Overcast
10:35 AM 32.0 °F 20.5 °F 28.4 °F 87% 29.95 in 6.0 mi East 18.4 mph - N/A   Overcast
10:55 AM 32.0 °F 21.6 °F 28.4 °F 87% 29.94 in 5.0 mi East 15.0 mph - N/A   Overcast
11:15 AM 32.0 °F 23.0 °F 28.4 °F 87% 29.94 in 4.0 mi East 11.5 mph - N/A   Overcast
11:35 AM 32.0 °F 23.0 °F 30.2 °F 93% 29.95 in 3.0 mi East 11.5 mph - N/A   Overcast
11:55 AM 32.0 °F 22.5 °F 30.2 °F 93% 29.95 in 3.0 mi East 12.7 mph - N/A   Overcast
12:15 PM 32.0 °F 24.2 °F 30.2 °F 93% 29.93 in 1.5 mi East 9.2 mph - N/A   Overcast
12:35 PM 32.0 °F 25.6 °F 30.2 °F 93% 29.93 in 2.0 mi East 6.9 mph - N/A   Overcast
12:55 PM 32.0 °F 23.6 °F 30.2 °F 93% 29.92 in 2.5 mi East 10.4 mph - N/A   Overcast
1:15 PM 33.8 °F 25.8 °F 30.2 °F 87% 29.89 in 2.0 mi East 10.4 mph - N/A   Overcast
1:35 PM 33.8 °F 25.8 °F 30.2 °F 87% 29.87 in 2.5 mi East 10.4 mph - N/A   Overcast
2:15 PM 33.8 °F 23.5 °F 33.8 °F 100% 29.83 in 3.0 mi East 16.1 mph - N/A   Overcast
2:35 PM 33.8 °F 22.8 °F 33.8 °F 100% 29.81 in 3.0 mi East 18.4 mph - N/A   Overcast
2:55 PM 35.6 °F 25.5 °F 33.8 °F 93% 29.81 in 1.0 mi East 17.3 mph - N/A   Overcast
3:15 PM 35.6 °F 25.5 °F 33.8 °F 93% 29.80 in 3.0 mi East 17.3 mph - N/A   Overcast
3:35 PM 35.6 °F 24.8 °F 33.8 °F 93% 29.81 in 3.0 mi East 19.6 mph 25.3 mph N/A   Overcast
3:55 PM 35.6 °F 25.5 °F 33.8 °F 93% 29.79 in 1.8 mi East 17.3 mph - N/A   Overcast
4:15 PM 35.6 °F 25.2 °F 33.8 °F 93% 29.77 in 2.0 mi East 18.4 mph - N/A   Overcast
4:35 PM 35.6 °F 23.4 °F 33.8 °F 93% 29.74 in 1.5 mi East 25.3 mph - N/A   Overcast
4:55 PM 35.6 °F 24.2 °F 33.8 °F 93% 29.74 in 2.0 mi ESE 21.9 mph - N/A   Overcast
5:15 PM 35.6 °F 25.9 °F 33.8 °F 93% 29.76 in 1.5 mi ESE 16.1 mph - N/A   Overcast
5:35 PM 35.6 °F 27.5 °F 33.8 °F 93% 29.79 in 2.5 mi ESE 11.5 mph - N/A   Overcast
5:55 PM 35.6 °F 24.8 °F 33.8 °F 93% 29.78 in 2.0 mi East 19.6 mph - N/A   Overcast
6:15 PM 35.6 °F 26.2 °F 33.8 °F 93% 29.78 in 3.0 mi ESE 15.0 mph - N/A   Overcast
6:35 PM 35.6 °F 26.2 °F 33.8 °F 93% 29.79 in 3.0 mi East 15.0 mph - N/A   Overcast
6:55 PM 35.6 °F 27.1 °F 33.8 °F 93% 29.80 in 2.0 mi East 12.7 mph - N/A   Overcast
7:15 PM 35.6 °F 27.1 °F 33.8 °F 93% 29.82 in 4.0 mi East 12.7 mph - N/A   Overcast
7:35 PM 35.6 °F 27.5 °F 33.8 °F 93% 29.81 in 2.0 mi East 11.5 mph - N/A   Overcast
7:55 PM 35.6 °F 29.2 °F 33.8 °F 93% 29.81 in 2.0 mi East 8.1 mph - N/A   Overcast
8:15 PM 35.6 °F 29.2 °F 33.8 °F 93% 29.81 in 2.5 mi East 8.1 mph - N/A   Overcast
8:35 PM 35.6 °F 27.5 °F 33.8 °F 93% 29.81 in 2.5 mi East 11.5 mph - N/A   Overcast
8:55 PM 35.6 °F 27.5 °F 33.8 °F 93% 29.80 in 2.0 mi East 11.5 mph - N/A   Overcast
9:15 PM 35.6 °F 29.2 °F 33.8 °F 93% 29.81 in 2.5 mi East 8.1 mph - N/A   Overcast
9:35 PM 35.6 °F 27.1 °F 33.8 °F 93% 29.81 in 3.0 mi East 12.7 mph - N/A   Overcast
9:55 PM 35.6 °F 28.0 °F 33.8 °F 93% 29.81 in 3.0 mi East 10.4 mph - N/A   Overcast
10:15 PM 35.6 °F 28.6 °F 33.8 °F 93% 29.81 in 4.0 mi East 9.2 mph - N/A   Overcast
10:35 PM 35.6 °F 28.6 °F 33.8 °F 93% 29.82 in 7.0 mi East 9.2 mph - N/A   Overcast
10:55 PM 35.6 °F 28.6 °F 33.8 °F 93% 29.79 in 8.0 mi East 9.2 mph - N/A   Overcast
11:55 PM 35.6 °F 27.1 °F 33.8 °F 93% 29.74 in 6.0 mi East 12.7 mph - N/A   Overcast